createdAt,value
2023-03-31T00:00:54.100Z,74.05
2023-03-31T00:03:24.251Z,72.82
2023-03-31T00:05:59.289Z,79.82
2023-03-31T00:08:30.487Z,78.15
2023-03-31T00:11:01.883Z,77.15
2023-03-31T00:13:29.869Z,75.74
2023-03-31T00:16:01.785Z,79.96
2023-03-31T00:18:30.221Z,78.08
2023-03-31T00:21:25.039Z,75.95
2023-03-31T00:23:57.462Z,75.00
2023-03-31T00:26:27.093Z,73.78
2023-03-31T00:28:55.099Z,71.50
2023-03-31T00:31:23.370Z,72.38
2023-03-31T00:33:51.147Z,74.33
2023-03-31T00:36:30.580Z,74.56
2023-03-31T00:39:02.829Z,74.00
2023-03-31T00:41:30.686Z,74.43
2023-03-31T00:44:34.517Z,76.84
2023-03-31T00:47:09.007Z,77.40
2023-03-31T00:49:40.560Z,73.34
2023-03-31T00:52:08.311Z,73.18
2023-03-31T00:54:37.688Z,75.78
2023-03-31T00:57:07.047Z,77.56
2023-03-31T00:59:37.367Z,77.34
2023-03-31T01:02:05.986Z,73.47
2023-03-31T01:04:35.522Z,74.89
2023-03-31T01:07:10.618Z,72.22
2023-03-31T01:09:38.921Z,74.22
2023-03-31T01:12:08.000Z,74.23
2023-03-31T01:14:35.305Z,76.09
2023-03-31T01:17:03.083Z,74.07
2023-03-31T01:19:46.384Z,76.59
2023-03-31T01:22:13.322Z,78.33
2023-03-31T01:25:02.306Z,79.46
2023-03-31T01:27:35.335Z,82.03
2023-03-31T01:30:20.720Z,77.81
2023-03-31T01:32:50.956Z,75.28
2023-03-31T01:35:37.113Z,76.35
2023-03-31T01:38:23.015Z,78.28
2023-03-31T01:40:55.978Z,80.52
2023-03-31T01:43:32.327Z,77.70
2023-03-31T01:45:59.832Z,79.47
2023-03-31T01:48:42.306Z,78.59
2023-03-31T01:51:16.772Z,80.30
2023-03-31T01:53:51.637Z,75.65
2023-03-31T01:56:23.806Z,74.79
2023-03-31T01:59:04.553Z,78.07
2023-03-31T02:01:56.676Z,77.18
2023-03-31T02:04:30.271Z,73.56
2023-03-31T02:07:00.457Z,70.56
2023-03-31T02:09:30.713Z,68.29
2023-03-31T02:11:59.135Z,69.05
2023-03-31T02:14:28.017Z,70.47
2023-03-31T02:17:02.573Z,69.91
2023-03-31T02:19:34.860Z,69.26
2023-03-31T02:22:04.683Z,69.75
2023-03-31T02:24:33.711Z,70.16
2023-03-31T02:27:19.655Z,71.63
2023-03-31T02:29:48.355Z,68.37
2023-03-31T02:32:16.040Z,69.15
2023-03-31T02:34:43.200Z,72.30
2023-03-31T02:37:11.297Z,72.12
2023-03-31T02:39:40.302Z,70.18
2023-03-31T02:42:07.795Z,71.13
2023-03-31T02:44:35.728Z,69.02
2023-03-31T02:47:08.318Z,68.00
2023-03-31T02:49:38.705Z,66.96
2023-03-31T02:52:06.140Z,65.61
2023-03-31T02:54:49.376Z,65.21
2023-03-31T02:57:26.378Z,65.72
2023-03-31T02:59:59.994Z,64.94
2023-03-31T03:02:46.253Z,65.29
2023-03-31T03:05:28.529Z,65.03
2023-03-31T03:07:56.211Z,64.79
2023-03-31T03:10:29.702Z,66.24
2023-03-31T03:13:00.362Z,66.70
2023-03-31T03:15:39.194Z,72.46
2023-03-31T03:18:06.870Z,69.88
2023-03-31T03:20:34.496Z,68.57
2023-03-31T03:23:01.828Z,68.89
2023-03-31T03:25:30.741Z,69.61
2023-03-31T03:27:58.018Z,69.01
2023-03-31T03:30:25.506Z,69.72
2023-03-31T03:32:54.756Z,70.24
2023-03-31T03:35:22.316Z,68.63
2023-03-31T03:37:49.721Z,70.89
2023-03-31T03:40:17.353Z,70.98
2023-03-31T03:42:44.797Z,70.97
2023-03-31T03:45:12.370Z,69.78
2023-03-31T03:47:39.809Z,70.07
2023-03-31T03:50:07.904Z,67.59
2023-03-31T03:52:35.360Z,67.45
2023-03-31T03:55:02.935Z,66.57
2023-03-31T03:57:30.294Z,66.30
2023-03-31T03:59:57.865Z,65.35
2023-03-31T04:02:28.008Z,65.62
2023-03-31T04:04:55.171Z,65.77
2023-03-31T04:07:22.441Z,65.77
2023-03-31T04:09:49.794Z,65.90
2023-03-31T04:12:16.870Z,66.48
2023-03-31T04:14:44.356Z,66.74
2023-03-31T04:17:16.062Z,67.10
2023-03-31T04:19:44.218Z,68.01
2023-03-31T04:22:12.095Z,67.67
2023-03-31T04:24:39.694Z,67.67
2023-03-31T04:27:09.392Z,66.95
2023-03-31T04:29:37.615Z,66.72
2023-03-31T04:32:05.158Z,69.30
2023-03-31T04:34:35.736Z,69.08
2023-03-31T04:37:04.352Z,68.46
2023-03-31T04:39:31.973Z,67.97
2023-03-31T04:42:00.353Z,68.04
2023-03-31T04:44:28.361Z,69.35
2023-03-31T04:46:56.297Z,67.33
2023-03-31T04:49:24.998Z,68.07
2023-03-31T04:51:52.437Z,67.15
2023-03-31T04:54:20.334Z,66.64
2023-03-31T04:56:48.480Z,67.05
2023-03-31T04:59:17.926Z,66.92
2023-03-31T05:01:45.900Z,65.69
2023-03-31T05:04:13.765Z,66.15
2023-03-31T05:06:41.469Z,66.28
2023-03-31T05:09:09.947Z,66.42
2023-03-31T05:11:38.500Z,65.08
2023-03-31T05:14:06.083Z,64.81
2023-03-31T05:16:33.380Z,65.91
2023-03-31T05:19:01.021Z,65.14
2023-03-31T05:21:30.789Z,65.21
2023-03-31T05:23:58.834Z,64.68
2023-03-31T05:26:26.966Z,64.64
2023-03-31T05:28:54.456Z,65.21
2023-03-31T05:31:22.190Z,64.71
2023-03-31T05:33:50.314Z,64.61
2023-03-31T05:36:18.351Z,65.66
2023-03-31T05:38:46.219Z,65.29
2023-03-31T05:41:13.334Z,67.71
2023-03-31T05:43:43.423Z,67.37
2023-03-31T05:46:10.998Z,66.50
2023-03-31T05:48:39.265Z,66.59
2023-03-31T05:51:07.202Z,67.61
2023-03-31T05:53:35.303Z,65.97
2023-03-31T05:56:04.069Z,65.15
2023-03-31T05:58:31.760Z,64.21
2023-03-31T06:01:02.857Z,63.75
2023-03-31T06:03:30.836Z,64.67
2023-03-31T06:05:58.854Z,63.94
2023-03-31T06:08:26.171Z,65.39
2023-03-31T06:10:53.516Z,66.71
2023-03-31T06:13:21.187Z,65.68
2023-03-31T06:15:58.197Z,64.27
2023-03-31T06:18:26.144Z,64.65
2023-03-31T06:20:53.692Z,65.46
2023-03-31T06:23:21.159Z,65.69
2023-03-31T06:25:51.937Z,65.76
2023-03-31T06:28:19.966Z,65.28
2023-03-31T06:30:47.681Z,65.02
2023-03-31T06:33:15.015Z,64.89
2023-03-31T06:35:42.445Z,63.81
2023-03-31T06:38:10.156Z,64.80
2023-03-31T06:40:37.961Z,65.64
2023-03-31T06:43:05.250Z,65.04
2023-03-31T06:45:32.302Z,67.33
2023-03-31T06:47:59.571Z,67.35
2023-03-31T06:50:27.289Z,65.82
2023-03-31T06:52:55.657Z,65.90
2023-03-31T06:55:23.457Z,64.73
2023-03-31T06:57:51.315Z,65.30
2023-03-31T07:00:21.492Z,63.99
2023-03-31T07:02:50.696Z,63.00
2023-03-31T07:05:20.532Z,65.22
2023-03-31T07:07:49.470Z,62.85
2023-03-31T07:10:17.971Z,64.94
2023-03-31T07:12:46.972Z,65.87
2023-03-31T07:15:14.822Z,67.10
2023-03-31T07:17:43.370Z,66.21
2023-03-31T07:20:15.265Z,66.05
2023-03-31T07:22:43.132Z,66.79
2023-03-31T07:25:11.045Z,63.60
2023-03-31T07:27:39.030Z,63.65
2023-03-31T07:30:07.617Z,64.32
2023-03-31T07:32:39.733Z,63.40
2023-03-31T07:35:07.169Z,62.83
2023-03-31T07:37:42.470Z,63.15
2023-03-31T07:40:11.515Z,65.32
2023-03-31T07:42:39.340Z,63.71
2023-03-31T07:45:08.556Z,64.22
2023-03-31T07:47:36.537Z,62.82
2023-03-31T07:50:06.161Z,64.57
2023-03-31T07:52:36.032Z,65.65
2023-03-31T07:55:04.420Z,65.23
2023-03-31T07:57:31.611Z,64.09
2023-03-31T07:59:58.913Z,65.11
2023-03-31T08:02:26.957Z,63.27
2023-03-31T08:04:55.830Z,61.92
2023-03-31T08:07:23.195Z,60.43
2023-03-31T08:09:57.257Z,61.99
2023-03-31T08:12:25.108Z,62.82
2023-03-31T08:14:53.986Z,62.76
2023-03-31T08:17:21.183Z,62.61
2023-03-31T08:19:48.648Z,61.37
2023-03-31T08:22:15.696Z,60.60
2023-03-31T08:24:44.305Z,60.25
2023-03-31T08:27:12.248Z,59.88
2023-03-31T08:29:40.101Z,61.08
2023-03-31T08:32:08.008Z,59.95
2023-03-31T08:34:38.449Z,60.07
2023-03-31T08:37:06.017Z,61.79
2023-03-31T08:39:34.704Z,64.82
2023-03-31T08:42:04.969Z,63.50
2023-03-31T08:44:32.314Z,63.86
2023-03-31T08:47:01.067Z,61.79
2023-03-31T08:49:30.198Z,61.93
2023-03-31T08:52:04.066Z,63.20
2023-03-31T08:54:37.486Z,65.66
2023-03-31T08:57:14.103Z,64.97
2023-03-31T08:59:44.881Z,64.44
2023-03-31T09:02:30.874Z,62.71
2023-03-31T09:05:17.642Z,64.11
2023-03-31T09:08:09.907Z,61.82
2023-03-31T09:10:57.965Z,61.80
2023-03-31T09:13:33.395Z,61.93
2023-03-31T09:16:04.441Z,62.74
2023-03-31T09:18:36.832Z,64.83
2023-03-31T09:21:22.549Z,63.56
2023-03-31T09:24:04.522Z,63.58
2023-03-31T09:26:47.458Z,64.14
2023-03-31T09:29:19.215Z,64.81
2023-03-31T09:31:47.366Z,65.07
2023-03-31T09:34:22.982Z,64.94
2023-03-31T09:36:50.214Z,64.88
2023-03-31T09:39:17.853Z,65.47
2023-03-31T09:41:46.444Z,62.33
2023-03-31T09:44:23.831Z,62.50
2023-03-31T09:46:52.075Z,62.77
2023-03-31T09:49:21.956Z,63.62
2023-03-31T09:51:59.715Z,62.13
2023-03-31T09:54:31.282Z,64.09
2023-03-31T09:56:59.464Z,63.18
2023-03-31T09:59:37.521Z,65.46
2023-03-31T10:02:17.926Z,65.27
2023-03-31T10:04:47.234Z,65.92
2023-03-31T10:07:14.726Z,64.11
2023-03-31T10:09:43.642Z,64.63
2023-03-31T10:12:20.405Z,63.23
2023-03-31T10:14:49.145Z,61.67
2023-03-31T10:17:19.699Z,62.06
2023-03-31T10:19:51.668Z,63.12
2023-03-31T10:22:33.397Z,63.20
2023-03-31T10:25:27.795Z,63.97
2023-03-31T10:27:56.515Z,61.71
2023-03-31T10:30:25.565Z,61.61
2023-03-31T10:32:54.658Z,61.36
2023-03-31T10:35:34.706Z,61.70
2023-03-31T10:38:16.406Z,60.93
2023-03-31T10:40:55.153Z,60.61
2023-03-31T10:43:27.455Z,61.19
2023-03-31T10:45:56.711Z,60.57
2023-03-31T10:48:31.563Z,59.14
2023-03-31T10:51:06.409Z,58.01
2023-03-31T10:53:45.770Z,58.46
2023-03-31T10:56:24.300Z,58.18
2023-03-31T10:59:04.650Z,59.28
2023-03-31T11:01:48.093Z,59.10
2023-03-31T11:04:19.408Z,61.37
2023-03-31T11:07:05.201Z,58.92
2023-03-31T11:09:42.138Z,58.94
2023-03-31T11:12:14.057Z,59.75
2023-03-31T11:15:03.527Z,60.42
2023-03-31T11:17:44.237Z,59.81
2023-03-31T11:20:30.806Z,58.48
2023-03-31T11:22:57.864Z,59.78
2023-03-31T11:25:28.720Z,60.95
2023-03-31T11:27:56.074Z,58.33
2023-03-31T11:30:24.707Z,60.03
2023-03-31T11:32:53.425Z,59.24
2023-03-31T11:35:35.984Z,59.33
2023-03-31T11:38:23.864Z,57.89
2023-03-31T11:41:20.745Z,58.43
2023-03-31T11:43:52.611Z,58.23
2023-03-31T11:46:22.888Z,57.18
2023-03-31T11:48:58.726Z,58.35
2023-03-31T11:51:30.887Z,58.21
2023-03-31T11:54:03.534Z,57.39
2023-03-31T11:56:35.931Z,58.67
2023-03-31T11:59:04.490Z,60.60
2023-03-31T12:01:54.892Z,60.70
2023-03-31T12:04:40.445Z,59.80
2023-03-31T12:07:15.905Z,59.52
2023-03-31T12:10:09.361Z,59.20
2023-03-31T12:12:42.839Z,59.16
2023-03-31T12:15:22.206Z,57.72
2023-03-31T12:18:09.387Z,58.50
2023-03-31T12:21:02.915Z,58.75
2023-03-31T12:23:33.996Z,58.70
2023-03-31T12:26:10.262Z,59.03
2023-03-31T12:28:39.091Z,59.69
2023-03-31T12:31:08.269Z,59.54
2023-03-31T12:33:41.113Z,58.54
2023-03-31T12:36:33.219Z,58.16
2023-03-31T12:39:13.448Z,59.49
2023-03-31T12:41:46.471Z,58.90
2023-03-31T12:44:14.518Z,58.66
2023-03-31T12:47:00.645Z,59.55
2023-03-31T12:49:35.805Z,61.26
2023-03-31T12:52:21.785Z,61.33
2023-03-31T12:55:04.192Z,60.44
2023-03-31T12:57:33.155Z,58.35
2023-03-31T13:00:22.435Z,60.33
2023-03-31T13:02:51.186Z,62.93
2023-03-31T13:05:38.027Z,63.21
2023-03-31T13:08:06.811Z,62.52
2023-03-31T13:10:33.850Z,65.42
2023-03-31T13:13:03.769Z,63.61
2023-03-31T13:15:32.564Z,62.23
2023-03-31T13:18:01.443Z,60.43
2023-03-31T13:20:38.702Z,61.66
2023-03-31T13:23:05.821Z,61.54
2023-03-31T13:25:38.121Z,63.22
2023-03-31T13:28:11.557Z,61.93
2023-03-31T13:30:45.674Z,61.63
2023-03-31T13:33:17.756Z,63.05
2023-03-31T13:35:48.034Z,61.71
2023-03-31T13:38:34.159Z,61.81
2023-03-31T13:41:11.096Z,63.83
2023-03-31T13:43:44.068Z,64.27
2023-03-31T13:46:36.855Z,62.94
2023-03-31T13:49:13.907Z,63.31
2023-03-31T13:52:03.351Z,61.57
2023-03-31T13:54:35.347Z,61.39
2023-03-31T13:57:21.547Z,63.63
2023-03-31T14:00:12.978Z,62.21
2023-03-31T14:02:52.362Z,61.56
2023-03-31T14:05:19.812Z,59.46
2023-03-31T14:07:50.174Z,60.23
2023-03-31T14:10:28.739Z,60.69
2023-03-31T14:13:18.225Z,60.62
2023-03-31T14:15:54.106Z,60.68
2023-03-31T14:18:33.967Z,58.93
2023-03-31T14:21:04.236Z,57.76
2023-03-31T14:23:38.407Z,58.25
2023-03-31T14:26:26.524Z,58.01
2023-03-31T14:29:14.052Z,57.95
2023-03-31T14:31:50.775Z,58.37
2023-03-31T14:34:18.057Z,59.94
2023-03-31T14:36:47.296Z,60.11
2023-03-31T14:39:17.144Z,60.50
2023-03-31T14:41:46.020Z,60.01
2023-03-31T14:44:18.803Z,60.84
2023-03-31T14:46:46.947Z,61.02
2023-03-31T14:49:33.231Z,63.50
2023-03-31T14:52:03.974Z,59.92
2023-03-31T14:54:34.340Z,59.37
2023-03-31T14:57:02.475Z,58.88
2023-03-31T14:59:31.091Z,59.27
2023-03-31T15:01:59.701Z,58.93
2023-03-31T15:04:41.432Z,58.31
2023-03-31T15:07:09.894Z,57.51
2023-03-31T15:09:39.134Z,57.92
2023-03-31T15:12:12.817Z,56.89
2023-03-31T15:14:45.359Z,56.56
2023-03-31T15:17:33.332Z,56.18
2023-03-31T15:20:01.750Z,57.92
2023-03-31T15:22:30.483Z,57.34
2023-03-31T15:24:58.201Z,57.23
2023-03-31T15:27:35.783Z,57.48
2023-03-31T15:30:07.097Z,56.92
2023-03-31T15:32:39.351Z,56.06
2023-03-31T15:37:56.729Z,56.58
2023-03-31T15:40:32.089Z,56.68
2023-03-31T15:43:20.581Z,57.04
2023-03-31T15:45:54.450Z,56.16
2023-03-31T15:48:22.082Z,56.65
2023-03-31T15:50:49.466Z,55.57
2023-03-31T15:53:28.742Z,55.05
2023-03-31T15:55:57.407Z,54.82
2023-03-31T15:58:44.807Z,55.49
2023-03-31T16:01:16.005Z,55.26
2023-03-31T16:03:46.011Z,54.85
2023-03-31T16:06:21.401Z,54.75
2023-03-31T16:08:58.299Z,54.31
2023-03-31T16:11:28.430Z,54.08
2023-03-31T16:14:00.018Z,53.72
2023-03-31T16:16:28.514Z,53.97
2023-03-31T16:19:17.429Z,53.95
2023-03-31T16:21:50.250Z,53.59
2023-03-31T16:24:17.564Z,54.12
2023-03-31T16:26:45.097Z,53.99
2023-03-31T16:29:20.936Z,55.13
2023-03-31T16:31:48.304Z,54.67
2023-03-31T16:34:15.308Z,53.14
2023-03-31T16:36:42.950Z,53.64
2023-03-31T16:39:10.826Z,54.68
2023-03-31T16:41:38.789Z,54.01
2023-03-31T16:44:06.582Z,53.08
2023-03-31T16:46:34.111Z,53.65
2023-03-31T16:49:01.548Z,53.42
2023-03-31T16:51:28.655Z,53.73
2023-03-31T16:53:58.376Z,53.37
2023-03-31T16:56:28.718Z,54.05
2023-03-31T16:58:56.385Z,54.56
2023-03-31T17:01:24.861Z,54.15
2023-03-31T17:03:53.839Z,54.01
2023-03-31T17:06:21.146Z,55.06
2023-03-31T17:08:48.487Z,55.08
2023-03-31T17:11:16.146Z,54.55
2023-03-31T17:13:45.007Z,54.74
2023-03-31T17:18:43.472Z,55.16
2023-03-31T17:21:11.360Z,55.70
2023-03-31T17:23:40.026Z,55.80
2023-03-31T17:26:10.439Z,55.34
2023-03-31T17:28:37.939Z,55.85
2023-03-31T17:31:15.241Z,56.10
2023-03-31T17:33:42.644Z,56.35
2023-03-31T17:36:10.312Z,57.15
2023-03-31T17:38:39.252Z,57.02
2023-03-31T17:41:09.060Z,57.76
2023-03-31T17:43:38.365Z,57.05
2023-03-31T17:46:13.351Z,57.32
2023-03-31T17:48:41.084Z,56.81
2023-03-31T17:51:09.456Z,56.69
2023-03-31T17:53:37.041Z,56.83
2023-03-31T17:56:05.180Z,56.84
2023-03-31T17:58:32.546Z,56.55
2023-03-31T18:01:08.358Z,57.18
2023-03-31T18:03:35.815Z,57.03
2023-03-31T18:06:04.818Z,56.95
2023-03-31T18:08:32.487Z,56.55
2023-03-31T18:11:00.747Z,56.82
2023-03-31T18:13:37.804Z,56.58
2023-03-31T18:16:05.486Z,57.01
2023-03-31T18:18:32.722Z,56.43
2023-03-31T18:21:03.481Z,56.91
2023-03-31T18:23:31.141Z,56.93
2023-03-31T18:25:58.437Z,56.77
2023-03-31T18:28:25.612Z,57.02
2023-03-31T18:30:53.724Z,56.86
2023-03-31T18:33:23.340Z,57.63
2023-03-31T18:35:51.045Z,57.58
2023-03-31T18:38:21.135Z,58.59
2023-03-31T18:40:49.715Z,58.30
2023-03-31T18:43:18.488Z,58.58
2023-03-31T18:45:49.617Z,58.36
2023-03-31T18:48:19.017Z,58.03
2023-03-31T18:50:47.448Z,58.64
2023-03-31T18:53:19.161Z,58.38
2023-03-31T18:55:49.807Z,59.04
2023-03-31T18:58:17.488Z,58.83
2023-03-31T19:00:46.306Z,59.04
2023-03-31T19:03:13.766Z,58.13
2023-03-31T19:05:41.772Z,58.61
2023-03-31T19:08:09.542Z,58.10
2023-03-31T19:10:36.740Z,58.53
2023-03-31T19:13:04.238Z,59.24
2023-03-31T19:15:32.828Z,59.29
2023-03-31T19:18:00.628Z,59.26
2023-03-31T19:20:28.711Z,59.32
2023-03-31T19:22:56.459Z,59.20
2023-03-31T19:25:24.181Z,59.43
2023-03-31T19:27:52.412Z,58.81
2023-03-31T19:30:23.685Z,58.94
2023-03-31T19:32:51.314Z,59.15
2023-03-31T19:35:19.705Z,59.09
2023-03-31T19:37:53.100Z,59.56
2023-03-31T19:40:20.525Z,60.21
2023-03-31T19:42:48.848Z,60.82
2023-03-31T19:45:15.823Z,60.56
2023-03-31T19:47:43.572Z,60.49
2023-03-31T19:50:17.308Z,60.66
2023-03-31T19:52:47.915Z,60.59
2023-03-31T19:55:16.685Z,61.50
2023-03-31T19:57:44.334Z,62.23
2023-03-31T20:00:12.646Z,61.86
2023-03-31T20:02:40.066Z,60.76
2023-03-31T20:05:08.845Z,60.48
2023-03-31T20:07:36.242Z,61.15
2023-03-31T20:10:04.813Z,61.12
2023-03-31T20:12:32.525Z,61.35
2023-03-31T20:15:00.848Z,62.15
2023-03-31T20:17:28.274Z,63.21
2023-03-31T20:19:55.743Z,61.63
2023-03-31T20:22:23.328Z,60.95
2023-03-31T20:24:52.182Z,61.95
2023-03-31T20:27:28.380Z,62.06
2023-03-31T20:29:59.235Z,63.14
2023-03-31T20:32:25.993Z,63.12
2023-03-31T20:34:55.087Z,61.95
2023-03-31T20:37:23.315Z,61.84
2023-03-31T20:39:51.329Z,61.21
2023-03-31T20:42:19.170Z,61.41
2023-03-31T20:44:47.446Z,61.17
2023-03-31T20:47:14.872Z,60.69
2023-03-31T20:49:42.380Z,61.01
2023-03-31T20:52:10.517Z,62.31
2023-03-31T20:54:47.476Z,62.34
2023-03-31T20:57:15.617Z,62.21
2023-03-31T20:59:43.213Z,61.71
2023-03-31T21:02:12.632Z,62.28
2023-03-31T21:04:40.527Z,62.26
2023-03-31T21:07:08.159Z,62.92
2023-03-31T21:09:36.022Z,64.49
2023-03-31T21:12:04.503Z,63.96
2023-03-31T21:14:32.316Z,63.49
2023-03-31T21:16:59.953Z,63.49
2023-03-31T21:19:28.172Z,62.88
2023-03-31T21:22:02.282Z,63.15
2023-03-31T21:24:30.309Z,63.02
2023-03-31T21:26:58.174Z,62.84
2023-03-31T21:29:25.172Z,63.71
2023-03-31T21:31:52.482Z,62.90
2023-03-31T21:34:22.506Z,63.44
2023-03-31T21:36:50.992Z,62.91
2023-03-31T21:39:20.017Z,63.60
2023-03-31T21:41:47.436Z,63.69
2023-03-31T21:44:16.206Z,63.76
2023-03-31T21:46:45.249Z,64.90
2023-03-31T21:49:12.922Z,64.88
2023-03-31T21:51:40.490Z,63.62
2023-03-31T21:54:08.135Z,64.48
2023-03-31T21:56:35.483Z,64.06
2023-03-31T21:59:04.424Z,63.78
2023-03-31T22:01:32.498Z,64.69
2023-03-31T22:04:00.452Z,63.87
2023-03-31T22:06:29.907Z,64.40
2023-03-31T22:08:57.451Z,64.21
2023-03-31T22:11:25.059Z,63.95
2023-03-31T22:13:52.350Z,64.05
2023-03-31T22:16:20.793Z,64.65
2023-03-31T22:18:48.637Z,65.68
2023-03-31T22:21:23.382Z,66.32
2023-03-31T22:23:53.964Z,65.29
2023-03-31T22:26:23.329Z,65.26
2023-03-31T22:28:50.851Z,65.13
2023-03-31T22:31:17.751Z,65.40
2023-03-31T22:33:46.490Z,68.33
2023-03-31T22:36:13.897Z,66.61
2023-03-31T22:38:42.035Z,64.50
2023-03-31T22:41:09.306Z,65.58
2023-03-31T22:43:37.874Z,64.27
2023-03-31T22:46:05.446Z,64.49
2023-03-31T22:48:34.391Z,64.59
2023-03-31T22:51:12.205Z,64.75
2023-03-31T22:53:38.955Z,64.84
2023-03-31T22:56:07.465Z,64.78
2023-03-31T22:58:34.759Z,65.52
2023-03-31T23:01:02.363Z,63.77
2023-03-31T23:03:30.006Z,63.79
2023-03-31T23:06:03.452Z,65.21
2023-03-31T23:08:30.909Z,64.57
2023-03-31T23:10:59.411Z,64.15
2023-03-31T23:13:27.097Z,63.74
2023-03-31T23:15:54.772Z,64.21
2023-03-31T23:18:24.313Z,64.41
2023-03-31T23:20:53.054Z,65.38
2023-03-31T23:23:20.457Z,64.98
2023-03-31T23:25:47.884Z,65.27
2023-03-31T23:28:15.229Z,67.22
2023-03-31T23:30:42.567Z,67.64
2023-03-31T23:33:09.824Z,66.44
2023-03-31T23:35:36.997Z,65.99
2023-03-31T23:38:07.308Z,65.26
2023-03-31T23:40:35.225Z,65.37
2023-03-31T23:43:05.155Z,66.80
2023-03-31T23:45:32.548Z,66.81
2023-03-31T23:47:59.956Z,66.01
2023-03-31T23:50:28.896Z,67.53
2023-03-31T23:52:59.521Z,70.24
2023-03-31T23:55:27.233Z,67.79
2023-03-31T23:57:54.776Z,66.35
